createdAt,value
2022-08-03T00:04:33.969Z,23.2
2022-08-03T00:10:29.393Z,23.1
2022-08-03T00:16:29.568Z,23
2022-08-03T00:22:29.532Z,23
2022-08-03T00:28:30.064Z,22.9
2022-08-03T00:34:57.100Z,22.8
2022-08-03T00:40:29.642Z,22.8
2022-08-03T00:46:30.448Z,22.8
2022-08-03T00:52:31.659Z,22.6
2022-08-03T00:58:29.467Z,22.6
2022-08-03T01:04:31.048Z,22.6
2022-08-03T01:10:29.021Z,22.6
2022-08-03T01:16:36.768Z,22.6
2022-08-03T01:22:29.025Z,22.6
2022-08-03T01:28:28.899Z,22.3
2022-08-03T01:34:29.085Z,22.2
2022-08-03T01:40:29.767Z,22.2
2022-08-03T01:46:29.916Z,22.2
2022-08-03T01:52:29.721Z,21.9
2022-08-03T01:58:29.584Z,21.9
2022-08-03T02:04:30.949Z,21.9
2022-08-03T02:10:35.351Z,21.9
2022-08-03T02:16:29.985Z,21.8
2022-08-03T02:22:29.979Z,21.8
2022-08-03T02:28:29.437Z,21.7
2022-08-03T02:34:30.315Z,21.6
2022-08-03T02:40:31.539Z,21.5
2022-08-03T02:46:30.904Z,21.5
2022-08-03T02:52:30.047Z,21.4
2022-08-03T02:58:29.714Z,21.3
2022-08-03T03:04:33.196Z,21.2
2022-08-03T03:10:29.153Z,21.1
2022-08-03T03:16:30.724Z,21.2
2022-08-03T03:22:29.604Z,21.2
2022-08-03T03:28:29.662Z,21.1
2022-08-03T03:34:30.669Z,21
2022-08-03T03:40:29.588Z,21.1
2022-08-03T03:46:30.244Z,21
2022-08-03T03:52:29.417Z,20.9
2022-08-03T03:58:30.284Z,20.9
2022-08-03T04:04:29.339Z,20.9
2022-08-03T04:10:29.903Z,20.9
2022-08-03T04:16:30.735Z,20.9
2022-08-03T04:22:31.278Z,20.9
2022-08-03T04:28:31.870Z,20.9
2022-08-03T04:34:30.546Z,20.9
2022-08-03T04:40:30.136Z,21
2022-08-03T04:46:30.683Z,20.9
2022-08-03T04:52:29.380Z,20.9
2022-08-03T04:58:29.183Z,21
2022-08-03T05:04:30.934Z,21
2022-08-03T05:10:29.512Z,21.1
2022-08-03T05:16:30.099Z,20.9
2022-08-03T05:22:31.868Z,20.9
2022-08-03T05:28:30.110Z,20.9
2022-08-03T05:34:29.375Z,21
2022-08-03T05:40:29.266Z,21
2022-08-03T05:46:30.063Z,21.2
2022-08-03T05:52:29.317Z,21.4
2022-08-03T05:58:31.738Z,21.5
2022-08-03T06:04:29.479Z,21.6
2022-08-03T06:10:37.651Z,21.7
2022-08-03T06:16:30.231Z,21.9
2022-08-03T06:22:30.554Z,22.1
2022-08-03T06:28:53.347Z,22.3
2022-08-03T06:34:35.237Z,22.4
2022-08-03T06:40:29.916Z,22.7
2022-08-03T06:46:30.955Z,22.9
2022-08-03T06:52:37.498Z,23.1
2022-08-03T06:58:29.610Z,23.3
2022-08-03T07:04:29.560Z,23.5
2022-08-03T07:10:29.549Z,23.5
2022-08-03T07:16:30.444Z,23.7
2022-08-03T07:22:29.451Z,23.8
2022-08-03T07:28:29.207Z,23.9
2022-08-03T07:34:29.952Z,24.1
2022-08-03T07:40:30.789Z,24.3
2022-08-03T07:46:29.680Z,24.5
2022-08-03T07:52:30.976Z,24.6
2022-08-03T07:58:29.168Z,24.8
2022-08-03T08:04:29.783Z,25.1
2022-08-03T08:10:29.172Z,25.3
2022-08-03T08:16:29.722Z,25.5
2022-08-03T08:22:31.417Z,25.7
2022-08-03T08:28:33.466Z,25.9
2022-08-03T08:34:29.434Z,26.1
2022-08-03T08:40:30.074Z,26.3
2022-08-03T08:46:29.892Z,26.5
2022-08-03T08:52:32.113Z,26.8
2022-08-03T08:58:30.843Z,26.9
2022-08-03T09:04:29.252Z,27.1
2022-08-03T09:10:30.064Z,27.3
2022-08-03T09:16:29.838Z,27.4
2022-08-03T09:22:29.482Z,27.6
2022-08-03T09:28:53.918Z,27.9
2022-08-03T09:34:29.720Z,28
2022-08-03T09:40:29.243Z,28.1
2022-08-03T09:46:29.988Z,28.3
2022-08-03T09:52:37.891Z,28.3
2022-08-03T09:58:30.074Z,28.5
2022-08-03T10:04:29.460Z,28.6
2022-08-03T10:10:32.357Z,28.8
2022-08-03T10:16:29.810Z,29
2022-08-03T10:22:29.956Z,29.1
2022-08-03T10:28:31.747Z,29.2
2022-08-03T10:34:30.565Z,29.5
2022-08-03T10:40:48.836Z,29.8
2022-08-03T10:46:29.989Z,30
2022-08-03T10:52:32.459Z,30.2
2022-08-03T10:58:30.752Z,30.3
2022-08-03T11:04:29.052Z,30.4
2022-08-03T11:10:29.102Z,30.7
2022-08-03T11:16:29.571Z,30.7
2022-08-03T11:22:30.467Z,31.1
2022-08-03T11:28:29.091Z,31.1
2022-08-03T11:34:28.931Z,31.1
2022-08-03T11:40:29.094Z,31.4
2022-08-03T11:46:29.836Z,31.6
2022-08-03T11:52:30.063Z,31.9
2022-08-03T11:59:11.262Z,32
2022-08-03T12:04:30.680Z,32.3
2022-08-03T12:10:30.004Z,32.3
2022-08-03T12:16:32.048Z,32.5
2022-08-03T12:22:30.808Z,32.7
2022-08-03T12:28:37.710Z,32.9
2022-08-03T12:34:32.537Z,32.9
2022-08-03T12:40:31.920Z,32.9
2022-08-03T12:46:31.043Z,33.2
2022-08-03T12:52:30.182Z,33.1
2022-08-03T12:58:30.116Z,33.2
2022-08-03T13:04:30.272Z,33.5
2022-08-03T13:10:29.251Z,33.7
2022-08-03T13:16:30.878Z,33.9
2022-08-03T13:22:30.247Z,33.8
2022-08-03T13:28:29.283Z,33.9
2022-08-03T13:34:29.490Z,34.1
2022-08-03T13:40:30.108Z,34.3
2022-08-03T13:46:31.848Z,34.7
2022-08-03T13:52:29.590Z,35.1
2022-08-03T13:58:29.306Z,35.3
2022-08-03T14:04:31.351Z,35.5
2022-08-03T14:10:29.284Z,35.8
2022-08-03T14:16:31.334Z,35.8
2022-08-03T14:22:30.487Z,35.9
2022-08-03T14:28:30.346Z,36.3
2022-08-03T14:34:30.762Z,36.6
2022-08-03T14:40:29.578Z,36.6
2022-08-03T14:46:32.958Z,37.6
2022-08-03T14:52:31.577Z,38.3
2022-08-03T14:58:30.032Z,38.6
2022-08-03T15:04:29.186Z,38.9
2022-08-03T15:10:44.549Z,39.2
2022-08-03T15:16:30.585Z,40.9
2022-08-03T15:22:34.528Z,42
2022-08-03T15:28:30.145Z,42.9
2022-08-03T15:34:30.284Z,43.2
2022-08-03T15:40:30.149Z,43.5
2022-08-03T15:46:30.470Z,43.9
2022-08-03T15:52:31.819Z,45.3
2022-08-03T15:59:03.925Z,47
2022-08-03T16:04:29.675Z,45.6
2022-08-03T16:10:30.484Z,47.8
2022-08-03T16:16:30.480Z,49.3
2022-08-03T16:22:30.976Z,49.5
2022-08-03T16:28:29.407Z,49.1
2022-08-03T16:34:30.917Z,46.8
2022-08-03T16:40:31.923Z,45
2022-08-03T16:46:30.645Z,43.9
2022-08-03T16:52:29.803Z,38.9
2022-08-03T16:58:41.344Z,38.4
2022-08-03T17:04:30.133Z,37.6
2022-08-03T17:10:29.679Z,39
2022-08-03T17:16:30.279Z,43.6
2022-08-03T17:22:30.180Z,45.4
2022-08-03T17:28:48.619Z,48.8
2022-08-03T17:34:30.634Z,49.1
2022-08-03T17:40:29.605Z,49
2022-08-03T17:46:29.916Z,49.5
2022-08-03T17:52:30.435Z,44.8
2022-08-03T17:58:29.140Z,41.9
2022-08-03T18:04:29.830Z,38.9
2022-08-03T18:10:30.673Z,37
2022-08-03T18:16:29.518Z,35.4
2022-08-03T18:22:30.612Z,34.3
2022-08-03T18:28:29.307Z,34.1
2022-08-03T18:34:33.822Z,33.8
2022-08-03T18:40:29.281Z,33.2
2022-08-03T18:46:29.605Z,33
2022-08-03T18:52:29.139Z,32.6
2022-08-03T18:58:29.167Z,32.6
2022-08-03T19:04:29.205Z,32.4
2022-08-03T19:10:29.229Z,31.8
2022-08-03T19:16:29.800Z,31.4
2022-08-03T19:22:29.887Z,31.2
2022-08-03T19:28:30.240Z,30.9
2022-08-03T19:34:29.952Z,30.6
2022-08-03T19:40:29.355Z,30.4
2022-08-03T19:46:31.380Z,30.1
2022-08-03T19:52:31.619Z,30.1
2022-08-03T19:58:29.431Z,29.6
2022-08-03T20:04:31.022Z,29.4
2022-08-03T20:10:29.902Z,29.2
2022-08-03T20:16:30.844Z,29
2022-08-03T20:22:29.624Z,28.9
2022-08-03T20:28:30.129Z,28.9
2022-08-03T20:34:29.582Z,28.8
2022-08-03T20:40:29.479Z,28.5
2022-08-03T20:46:40.641Z,28.4
2022-08-03T20:52:29.399Z,28.4
2022-08-03T20:58:30.625Z,28.2
2022-08-03T21:04:29.437Z,28
2022-08-03T21:10:29.404Z,27.9
2022-08-03T21:16:29.840Z,27.8
2022-08-03T21:22:30.522Z,27.7
2022-08-03T21:28:29.469Z,27.7
2022-08-03T21:34:29.958Z,27.5
2022-08-03T21:40:29.821Z,27.3
2022-08-03T21:46:30.761Z,27.1
2022-08-03T21:52:29.626Z,27
2022-08-03T21:58:29.767Z,26.9
2022-08-03T22:04:53.519Z,26.9
2022-08-03T22:10:29.591Z,26.7
2022-08-03T22:16:31.036Z,26.5
2022-08-03T22:22:29.625Z,26.4
2022-08-03T22:28:30.220Z,26.4
2022-08-03T22:34:29.638Z,26.2
2022-08-03T22:40:29.617Z,26.1
2022-08-03T22:46:30.300Z,26
2022-08-03T22:52:29.669Z,25.9
2022-08-03T22:58:29.503Z,25.8
2022-08-03T23:04:29.566Z,25.8
2022-08-03T23:10:30.564Z,25.7
2022-08-03T23:16:29.935Z,25.6
2022-08-03T23:22:30.896Z,25.5
2022-08-03T23:28:29.972Z,25.5
2022-08-03T23:34:30.686Z,25.3
2022-08-03T23:40:29.492Z,25.2
2022-08-03T23:46:29.796Z,25.1
2022-08-03T23:52:29.641Z,25
2022-08-03T23:58:29.189Z,24.9
